createdAt,value
2022-09-29T00:00:46.904Z,17.71
2022-09-29T00:01:46.955Z,17.70
2022-09-29T00:02:46.937Z,17.71
2022-09-29T00:03:46.906Z,17.64
2022-09-29T00:04:46.904Z,17.68
2022-09-29T00:05:46.890Z,17.71
2022-09-29T00:06:46.889Z,17.70
2022-09-29T00:07:46.893Z,17.70
2022-09-29T00:08:46.887Z,17.72
2022-09-29T00:09:46.896Z,17.71
2022-09-29T00:10:46.904Z,17.64
2022-09-29T00:11:46.873Z,17.63
2022-09-29T00:12:46.883Z,17.71
2022-09-29T00:13:46.872Z,17.66
2022-09-29T00:14:47.972Z,17.70
2022-09-29T00:15:46.873Z,17.71
2022-09-29T00:16:46.905Z,17.71
2022-09-29T00:18:12.247Z,17.71
2022-09-29T00:18:46.854Z,17.66
2022-09-29T00:19:46.859Z,17.68
2022-09-29T00:20:46.855Z,17.70
2022-09-29T00:21:46.846Z,17.74
2022-09-29T00:22:46.841Z,17.63
2022-09-29T00:23:47.043Z,17.66
2022-09-29T00:24:46.850Z,17.64
2022-09-29T00:25:46.841Z,17.72
2022-09-29T00:26:46.859Z,17.66
2022-09-29T00:27:46.822Z,17.62
2022-09-29T00:28:46.825Z,17.68
2022-09-29T00:29:46.817Z,17.66
2022-09-29T00:30:46.825Z,17.63
2022-09-29T00:31:46.890Z,17.72
2022-09-29T00:32:46.815Z,17.63
2022-09-29T00:33:46.813Z,17.63
2022-09-29T00:34:46.802Z,17.68
2022-09-29T00:35:46.794Z,17.64
2022-09-29T00:36:46.800Z,17.68
2022-09-29T00:37:46.819Z,17.66
2022-09-29T00:38:46.803Z,17.66
2022-09-29T00:39:46.803Z,17.68
2022-09-29T00:40:47.022Z,17.70
2022-09-29T00:41:47.391Z,17.71
2022-09-29T00:42:46.800Z,17.68
2022-09-29T00:43:46.769Z,17.62
2022-09-29T00:44:46.774Z,17.62
2022-09-29T00:45:46.886Z,17.66
2022-09-29T00:46:46.773Z,17.66
2022-09-29T00:47:46.764Z,17.63
2022-09-29T00:48:46.766Z,17.64
2022-09-29T00:49:46.768Z,17.63
2022-09-29T00:50:46.755Z,17.66
2022-09-29T00:51:46.750Z,17.64
2022-09-29T00:52:46.755Z,17.68
2022-09-29T00:53:46.738Z,17.64
2022-09-29T00:54:46.751Z,17.66
2022-09-29T00:55:46.737Z,17.70
2022-09-29T00:56:46.733Z,17.58
2022-09-29T00:57:46.729Z,17.63
2022-09-29T00:58:46.751Z,17.63
2022-09-29T00:59:46.738Z,17.62
2022-09-29T01:00:46.815Z,17.62
2022-09-29T01:01:46.777Z,17.64
2022-09-29T01:02:46.716Z,17.56
2022-09-29T01:03:46.721Z,17.58
2022-09-29T01:04:46.720Z,17.68
2022-09-29T01:05:46.700Z,17.70
2022-09-29T01:06:46.705Z,17.66
2022-09-29T01:07:46.693Z,17.62
2022-09-29T01:08:46.713Z,17.58
2022-09-29T01:09:46.700Z,17.62
2022-09-29T01:10:46.698Z,17.66
2022-09-29T01:11:46.678Z,17.68
2022-09-29T01:12:46.686Z,17.55
2022-09-29T01:13:46.683Z,17.62
2022-09-29T01:14:46.702Z,17.63
2022-09-29T01:15:46.678Z,17.62
2022-09-29T01:16:46.695Z,17.54
2022-09-29T01:17:46.666Z,17.68
2022-09-29T01:18:46.670Z,17.68
2022-09-29T01:19:46.666Z,17.54
2022-09-29T01:20:46.660Z,17.59
2022-09-29T01:21:46.662Z,17.52
2022-09-29T01:22:46.656Z,17.55
2022-09-29T01:23:46.657Z,17.64
2022-09-29T01:24:46.658Z,17.58
2022-09-29T01:25:46.649Z,17.55
2022-09-29T01:26:46.641Z,17.56
2022-09-29T01:27:46.634Z,17.63
2022-09-29T01:28:46.628Z,17.56
2022-09-29T01:29:46.631Z,17.54
2022-09-29T01:30:46.651Z,17.55
2022-09-29T01:31:46.677Z,17.55
2022-09-29T01:32:46.627Z,17.52
2022-09-29T01:33:46.618Z,17.56
2022-09-29T01:34:46.617Z,17.52
2022-09-29T01:35:46.607Z,17.56
2022-09-29T01:36:46.623Z,17.52
2022-09-29T01:37:46.601Z,17.59
2022-09-29T01:38:46.604Z,17.55
2022-09-29T01:39:46.604Z,17.58
2022-09-29T01:40:46.637Z,17.49
2022-09-29T01:41:46.590Z,17.56
2022-09-29T01:42:46.592Z,17.64
2022-09-29T01:43:46.733Z,17.59
2022-09-29T01:44:46.601Z,17.58
2022-09-29T01:45:46.612Z,17.62
2022-09-29T01:46:46.604Z,17.52
2022-09-29T01:47:46.579Z,17.63
2022-09-29T01:48:46.573Z,17.56
2022-09-29T01:49:46.569Z,17.51
2022-09-29T01:50:46.558Z,17.52
2022-09-29T01:51:46.551Z,17.56
2022-09-29T01:52:46.553Z,17.54
2022-09-29T01:53:46.558Z,17.56
2022-09-29T01:54:46.553Z,17.59
2022-09-29T01:55:46.551Z,17.54
2022-09-29T01:56:46.548Z,17.55
2022-09-29T01:57:46.540Z,17.52
2022-09-29T01:58:46.548Z,17.58
2022-09-29T01:59:46.538Z,17.52
2022-09-29T02:00:46.609Z,17.59
2022-09-29T02:01:46.591Z,17.48
2022-09-29T02:02:46.547Z,17.46
2022-09-29T02:03:46.518Z,17.55
2022-09-29T02:04:46.516Z,17.51
2022-09-29T02:05:46.517Z,17.59
2022-09-29T02:06:46.509Z,17.48
2022-09-29T02:07:46.532Z,17.51
2022-09-29T02:08:46.501Z,17.44
2022-09-29T02:09:46.500Z,17.46
2022-09-29T02:10:46.504Z,17.49
2022-09-29T02:11:46.497Z,17.51
2022-09-29T02:12:46.487Z,17.54
2022-09-29T02:13:46.495Z,17.51
2022-09-29T02:14:46.487Z,17.55
2022-09-29T02:15:46.484Z,17.51
2022-09-29T02:16:46.482Z,17.46
2022-09-29T02:17:46.471Z,17.49
2022-09-29T02:18:46.488Z,17.46
2022-09-29T02:19:46.467Z,17.46
2022-09-29T02:20:46.468Z,17.48
2022-09-29T02:21:46.458Z,17.43
2022-09-29T02:22:46.458Z,17.48
2022-09-29T02:23:46.458Z,17.49
2022-09-29T02:24:46.461Z,17.41
2022-09-29T02:25:46.453Z,17.48
2022-09-29T02:26:46.452Z,17.52
2022-09-29T02:27:46.438Z,17.48
2022-09-29T02:28:46.450Z,17.44
2022-09-29T02:29:46.438Z,17.54
2022-09-29T02:30:46.442Z,17.46
2022-09-29T02:31:46.534Z,17.48
2022-09-29T02:32:46.421Z,17.48
2022-09-29T02:33:46.417Z,17.48
2022-09-29T02:34:46.451Z,17.54
2022-09-29T02:35:46.419Z,17.54
2022-09-29T02:36:46.416Z,17.51
2022-09-29T02:37:46.403Z,17.52
2022-09-29T02:38:46.409Z,17.49
2022-09-29T02:39:46.402Z,17.48
2022-09-29T02:40:46.421Z,17.54
2022-09-29T02:41:46.397Z,17.48
2022-09-29T02:42:46.386Z,17.44
2022-09-29T02:43:46.383Z,17.44
2022-09-29T02:44:46.387Z,17.46
2022-09-29T02:45:46.424Z,17.54
2022-09-29T02:46:46.380Z,17.52
2022-09-29T02:47:46.382Z,17.52
2022-09-29T02:48:46.372Z,17.55
2022-09-29T02:49:46.366Z,17.52
2022-09-29T02:50:46.383Z,17.52
2022-09-29T02:51:46.355Z,17.44
2022-09-29T02:52:46.360Z,17.49
2022-09-29T02:53:46.359Z,17.44
2022-09-29T02:54:46.358Z,17.44
2022-09-29T02:55:46.346Z,17.44
2022-09-29T02:56:46.353Z,17.56
2022-09-29T02:57:46.347Z,17.46
2022-09-29T02:58:48.373Z,17.48
2022-09-29T02:59:46.339Z,17.48
2022-09-29T03:00:46.375Z,17.52
2022-09-29T03:01:46.323Z,17.49
2022-09-29T03:02:46.335Z,17.49
2022-09-29T03:03:46.392Z,17.44
2022-09-29T03:04:46.342Z,17.44
2022-09-29T03:05:46.313Z,17.48
2022-09-29T03:06:46.335Z,17.46
2022-09-29T03:07:46.317Z,17.43
2022-09-29T03:08:46.304Z,17.48
2022-09-29T03:09:46.309Z,17.44
2022-09-29T03:10:46.305Z,17.49
2022-09-29T03:11:46.300Z,17.44
2022-09-29T03:12:46.309Z,17.49
2022-09-29T03:13:46.294Z,17.46
2022-09-29T03:14:46.280Z,17.48
2022-09-29T03:15:46.283Z,17.44
2022-09-29T03:16:46.283Z,17.44
2022-09-29T03:17:46.284Z,17.48
2022-09-29T03:18:46.272Z,17.48
2022-09-29T03:19:46.272Z,17.44
2022-09-29T03:20:46.268Z,17.36
2022-09-29T03:21:46.264Z,17.51
2022-09-29T03:22:46.277Z,17.40
2022-09-29T03:23:46.255Z,17.44
2022-09-29T03:24:46.253Z,17.41
2022-09-29T03:25:46.255Z,17.48
2022-09-29T03:26:46.269Z,17.48
2022-09-29T03:27:46.261Z,17.51
2022-09-29T03:28:46.241Z,17.43
2022-09-29T03:29:46.239Z,17.34
2022-09-29T03:30:46.242Z,17.43
2022-09-29T03:31:46.310Z,17.46
2022-09-29T03:32:46.227Z,17.44
2022-09-29T03:33:46.226Z,17.34
2022-09-29T03:34:46.246Z,17.34
2022-09-29T03:35:46.230Z,17.36
2022-09-29T03:36:46.215Z,17.30
2022-09-29T03:37:46.229Z,17.37
2022-09-29T03:38:46.230Z,17.28
2022-09-29T03:39:46.196Z,17.33
2022-09-29T03:40:46.291Z,17.33
2022-09-29T03:41:46.206Z,17.36
2022-09-29T03:42:46.201Z,17.41
2022-09-29T03:43:46.187Z,17.43
2022-09-29T03:44:46.181Z,17.38
2022-09-29T03:45:46.239Z,17.37
2022-09-29T03:46:46.181Z,17.43
2022-09-29T03:47:46.185Z,17.37
2022-09-29T03:48:46.176Z,17.41
2022-09-29T03:49:46.169Z,17.30
2022-09-29T03:50:46.166Z,17.37
2022-09-29T03:51:46.175Z,17.30
2022-09-29T03:52:46.166Z,17.26
2022-09-29T03:53:46.166Z,17.36
2022-09-29T03:54:46.176Z,17.33
2022-09-29T03:55:46.149Z,17.33
2022-09-29T03:56:46.156Z,17.33
2022-09-29T03:57:46.152Z,17.33
2022-09-29T03:58:46.144Z,17.26
2022-09-29T03:59:46.143Z,17.33
2022-09-29T04:00:46.198Z,17.33
2022-09-29T04:01:46.190Z,17.28
2022-09-29T04:02:46.129Z,17.36
2022-09-29T04:03:46.135Z,17.33
2022-09-29T04:04:46.119Z,17.34
2022-09-29T04:05:46.117Z,17.31
2022-09-29T04:06:46.113Z,17.30
2022-09-29T04:07:46.116Z,17.33
2022-09-29T04:08:46.106Z,17.33
2022-09-29T04:09:46.112Z,17.36
2022-09-29T04:10:46.117Z,17.37
2022-09-29T04:11:46.091Z,17.34
2022-09-29T04:12:46.091Z,17.34
2022-09-29T04:13:46.091Z,17.34
2022-09-29T04:14:46.089Z,17.33
2022-09-29T04:15:46.079Z,17.28
2022-09-29T04:16:46.118Z,17.34
2022-09-29T04:17:46.081Z,17.33
2022-09-29T04:18:46.080Z,17.31
2022-09-29T04:19:46.070Z,17.33
2022-09-29T04:20:46.074Z,17.34
2022-09-29T04:21:46.059Z,17.31
2022-09-29T04:22:46.066Z,17.33
2022-09-29T04:23:46.063Z,17.31
2022-09-29T04:24:46.057Z,17.30
2022-09-29T04:25:46.049Z,17.30
2022-09-29T04:26:46.064Z,17.28
2022-09-29T04:27:46.051Z,17.33
2022-09-29T04:28:46.041Z,17.34
2022-09-29T04:29:46.041Z,17.34
2022-09-29T04:30:46.040Z,17.36
2022-09-29T04:31:46.168Z,17.37
2022-09-29T04:32:46.038Z,17.30
2022-09-29T04:33:46.028Z,17.31
2022-09-29T04:34:46.018Z,17.37
2022-09-29T04:35:46.023Z,17.28
2022-09-29T04:36:46.022Z,17.31
2022-09-29T04:37:46.023Z,17.37
2022-09-29T04:38:46.001Z,17.34
2022-09-29T04:39:45.996Z,17.36
2022-09-29T04:40:46.018Z,17.36
2022-09-29T04:41:45.999Z,17.28
2022-09-29T04:42:46.025Z,17.33
2022-09-29T04:43:45.992Z,17.31
2022-09-29T04:44:45.987Z,17.31
2022-09-29T04:45:46.008Z,17.28
2022-09-29T04:46:45.989Z,17.30
2022-09-29T04:47:45.983Z,17.33
2022-09-29T04:48:45.972Z,17.28
2022-09-29T04:49:45.980Z,17.31
2022-09-29T04:50:45.967Z,17.31
2022-09-29T04:51:45.960Z,17.36
2022-09-29T04:52:45.960Z,17.28
2022-09-29T04:53:45.959Z,17.30
2022-09-29T04:54:45.953Z,17.33
2022-09-29T04:55:45.954Z,17.31
2022-09-29T04:56:45.941Z,17.30
2022-09-29T04:57:45.949Z,17.26
2022-09-29T04:58:46.066Z,17.34
2022-09-29T04:59:45.933Z,17.34
2022-09-29T05:00:45.949Z,17.28
2022-09-29T05:01:45.974Z,17.26
2022-09-29T05:02:49.684Z,17.26
2022-09-29T05:03:45.917Z,17.25
2022-09-29T05:04:45.919Z,17.25
2022-09-29T05:05:45.918Z,17.23
2022-09-29T05:06:45.919Z,17.31
2022-09-29T05:07:45.937Z,17.30
2022-09-29T05:08:45.903Z,17.28
2022-09-29T05:09:45.901Z,17.28
2022-09-29T05:10:45.893Z,17.30
2022-09-29T05:11:45.897Z,17.28
2022-09-29T05:12:45.906Z,17.31
2022-09-29T05:13:45.892Z,17.30
2022-09-29T05:14:45.906Z,17.26
2022-09-29T05:15:45.881Z,17.23
2022-09-29T05:16:45.911Z,17.31
2022-09-29T05:17:45.878Z,17.30
2022-09-29T05:18:45.879Z,17.30
2022-09-29T05:19:45.929Z,17.26
2022-09-29T05:21:04.884Z,17.26
2022-09-29T05:21:45.859Z,17.26
2022-09-29T05:22:45.861Z,17.30
2022-09-29T05:23:45.854Z,17.19
2022-09-29T05:24:45.852Z,17.25
2022-09-29T05:25:45.841Z,17.30
2022-09-29T05:26:45.852Z,17.23
2022-09-29T05:27:49.175Z,17.23
2022-09-29T05:28:45.854Z,17.19
2022-09-29T05:29:45.835Z,17.21
2022-09-29T05:30:45.850Z,17.15
2022-09-29T05:31:45.954Z,17.28
2022-09-29T05:32:45.817Z,17.18
2022-09-29T05:33:45.818Z,17.16
2022-09-29T05:34:45.823Z,17.19
2022-09-29T05:35:45.813Z,17.23
2022-09-29T05:36:45.808Z,17.30
2022-09-29T05:37:45.810Z,17.16
2022-09-29T05:38:45.816Z,17.15
2022-09-29T05:39:45.809Z,17.18
2022-09-29T05:40:45.804Z,17.15
2022-09-29T05:41:45.803Z,17.18
2022-09-29T05:42:45.797Z,17.18
2022-09-29T05:43:45.788Z,17.22
2022-09-29T05:44:45.779Z,17.16
2022-09-29T05:45:45.825Z,17.19
2022-09-29T05:46:45.801Z,17.21
2022-09-29T05:47:45.766Z,17.14
2022-09-29T05:48:45.777Z,17.21
2022-09-29T05:49:45.760Z,17.14
2022-09-29T05:50:45.756Z,17.21
2022-09-29T05:51:45.760Z,17.15
2022-09-29T05:52:45.769Z,17.22
2022-09-29T05:53:45.744Z,17.21
2022-09-29T05:54:45.743Z,17.18
2022-09-29T05:55:45.737Z,17.16
2022-09-29T05:56:45.737Z,17.15
2022-09-29T05:57:45.744Z,17.19
2022-09-29T05:58:45.757Z,17.22
2022-09-29T05:59:45.723Z,17.18
2022-09-29T06:00:45.801Z,17.21
2022-09-29T06:01:45.757Z,17.16
2022-09-29T06:02:45.734Z,17.15
2022-09-29T06:03:45.719Z,17.18
2022-09-29T06:04:45.716Z,17.19
2022-09-29T06:05:45.702Z,17.19
2022-09-29T06:06:45.706Z,17.15
2022-09-29T06:07:45.694Z,17.19
2022-09-29T06:08:45.703Z,17.21
2022-09-29T06:09:45.696Z,17.19
2022-09-29T06:10:45.695Z,17.18
2022-09-29T06:11:45.691Z,17.19
2022-09-29T06:12:45.688Z,17.15
2022-09-29T06:13:45.679Z,17.19
2022-09-29T06:14:45.682Z,17.18
2022-09-29T06:15:45.671Z,17.21
2022-09-29T06:16:45.750Z,17.12
2022-09-29T06:17:45.676Z,17.19
2022-09-29T06:18:45.695Z,17.18
2022-09-29T06:19:45.653Z,17.15
2022-09-29T06:20:45.656Z,17.19
2022-09-29T06:21:45.667Z,17.15
2022-09-29T06:22:45.645Z,17.19
2022-09-29T06:23:45.659Z,17.19
2022-09-29T06:24:45.641Z,17.19
2022-09-29T06:25:45.637Z,17.16
2022-09-29T06:26:45.643Z,17.21
2022-09-29T06:27:45.640Z,17.18
2022-09-29T06:28:45.635Z,17.21
2022-09-29T06:29:45.621Z,17.16
2022-09-29T06:30:45.628Z,17.18
2022-09-29T06:31:45.665Z,17.14
2022-09-29T06:32:45.622Z,17.19
2022-09-29T06:33:45.612Z,17.15
2022-09-29T06:34:45.625Z,17.15
2022-09-29T06:35:45.603Z,17.18
2022-09-29T06:36:45.604Z,17.21
2022-09-29T06:37:45.603Z,17.18
2022-09-29T06:38:45.599Z,17.12
2022-09-29T06:39:45.589Z,17.21
2022-09-29T06:40:45.666Z,17.18
2022-09-29T06:41:45.582Z,17.19
2022-09-29T06:42:45.590Z,17.21
2022-09-29T06:43:45.583Z,17.21
2022-09-29T06:44:45.581Z,17.12
2022-09-29T06:45:45.690Z,17.19
2022-09-29T06:46:45.667Z,17.18
2022-09-29T06:47:45.569Z,17.18
2022-09-29T06:48:45.558Z,17.19
2022-09-29T06:49:55.667Z,17.15
2022-09-29T06:50:45.571Z,17.15
2022-09-29T06:51:46.586Z,17.16
2022-09-29T06:52:56.114Z,17.19
2022-09-29T06:53:45.557Z,17.22
2022-09-29T06:54:45.545Z,17.18
2022-09-29T06:55:45.530Z,17.16
2022-09-29T06:56:45.537Z,17.15
2022-09-29T06:57:45.538Z,17.18
2022-09-29T06:58:45.531Z,17.16
2022-09-29T06:59:45.519Z,17.18
2022-09-29T07:00:47.151Z,17.21
2022-09-29T07:01:45.519Z,17.19
2022-09-29T07:02:45.512Z,17.16
2022-09-29T07:03:45.516Z,17.22
2022-09-29T07:04:45.503Z,17.21
2022-09-29T07:05:52.777Z,17.18
2022-09-29T07:06:45.526Z,17.14
2022-09-29T07:07:47.834Z,17.28
2022-09-29T07:08:45.500Z,17.30
2022-09-29T07:09:45.498Z,17.25
2022-09-29T07:10:45.484Z,17.28
2022-09-29T07:11:45.481Z,17.30
2022-09-29T07:12:45.479Z,17.31
2022-09-29T07:13:45.476Z,17.33
2022-09-29T07:14:45.470Z,17.31
2022-09-29T07:15:45.496Z,17.34
2022-09-29T07:16:45.498Z,17.33
2022-09-29T07:17:45.469Z,17.31
2022-09-29T07:18:45.469Z,17.36
2022-09-29T07:19:45.458Z,17.34
2022-09-29T07:20:45.451Z,17.34
2022-09-29T07:21:45.460Z,17.34
2022-09-29T07:22:45.464Z,17.26
2022-09-29T07:23:45.438Z,17.26
2022-09-29T07:24:45.451Z,17.31
2022-09-29T07:25:52.154Z,17.38
2022-09-29T07:26:45.432Z,17.38
2022-09-29T07:27:45.432Z,17.41
2022-09-29T07:28:45.432Z,17.40
2022-09-29T07:29:55.838Z,17.28
2022-09-29T07:30:45.427Z,17.33
2022-09-29T07:31:51.453Z,17.34
2022-09-29T07:32:57.497Z,17.34
2022-09-29T07:33:45.556Z,17.33
2022-09-29T07:34:45.434Z,17.28
2022-09-29T07:35:45.410Z,17.34
2022-09-29T07:36:45.397Z,17.28
2022-09-29T07:37:45.417Z,17.43
2022-09-29T07:38:45.431Z,17.33
2022-09-29T07:39:45.406Z,17.25
2022-09-29T07:40:45.466Z,17.28
2022-09-29T07:41:45.385Z,17.33
2022-09-29T07:42:45.383Z,17.31
2022-09-29T07:43:45.400Z,17.36
2022-09-29T07:44:47.965Z,17.33
2022-09-29T07:45:45.426Z,17.31
2022-09-29T07:46:45.373Z,17.33
2022-09-29T07:47:45.379Z,17.34
2022-09-29T07:48:45.371Z,17.31
2022-09-29T07:49:45.365Z,17.28
2022-09-29T07:50:45.357Z,17.31
2022-09-29T07:51:45.359Z,17.36
2022-09-29T07:52:45.349Z,17.34
2022-09-29T07:53:45.360Z,17.31
2022-09-29T07:54:45.375Z,17.30
2022-09-29T07:55:45.351Z,17.37
2022-09-29T07:56:45.335Z,17.33
2022-09-29T07:57:45.350Z,17.30
2022-09-29T07:58:45.333Z,17.31
2022-09-29T07:59:51.027Z,17.30
2022-09-29T08:00:45.380Z,17.34
2022-09-29T08:01:45.328Z,17.34
2022-09-29T08:02:45.323Z,17.25
2022-09-29T08:03:45.334Z,17.28
2022-09-29T08:04:45.322Z,17.37
2022-09-29T08:05:45.321Z,17.31
2022-09-29T08:06:45.336Z,17.33
2022-09-29T08:07:45.305Z,17.34
2022-09-29T08:08:57.965Z,17.33
2022-09-29T08:09:45.298Z,17.34
2022-09-29T08:10:52.983Z,17.31
2022-09-29T08:11:45.372Z,17.33
2022-09-29T08:12:45.312Z,17.31
2022-09-29T08:13:45.302Z,17.37
2022-09-29T08:14:45.287Z,17.30
2022-09-29T08:15:45.289Z,17.31
2022-09-29T08:16:45.379Z,17.31
2022-09-29T08:17:45.274Z,17.34
2022-09-29T08:18:45.282Z,17.36
2022-09-29T08:19:45.277Z,17.33
2022-09-29T08:20:45.274Z,17.34
2022-09-29T08:21:45.264Z,17.33
2022-09-29T08:22:45.258Z,17.31
2022-09-29T08:23:45.254Z,17.28
2022-09-29T08:24:45.253Z,17.34
2022-09-29T08:25:55.411Z,17.33
2022-09-29T08:26:45.270Z,17.31
2022-09-29T08:27:54.819Z,17.34
2022-09-29T08:28:45.353Z,17.31
2022-09-29T08:29:46.904Z,17.33
2022-09-29T08:30:45.242Z,17.30
2022-09-29T08:31:45.357Z,17.31
2022-09-29T08:32:45.231Z,17.31
2022-09-29T08:33:45.237Z,17.33
2022-09-29T08:34:45.224Z,17.37
2022-09-29T08:35:45.217Z,17.33
2022-09-29T08:36:45.225Z,17.31
2022-09-29T08:37:45.211Z,17.34
2022-09-29T08:38:45.221Z,17.31
2022-09-29T08:39:45.208Z,17.28
2022-09-29T08:40:45.276Z,17.33
2022-09-29T08:41:45.213Z,17.37
2022-09-29T08:42:48.955Z,17.33
2022-09-29T08:43:45.218Z,17.34
2022-09-29T08:44:45.659Z,17.28
2022-09-29T08:45:57.081Z,17.30
2022-09-29T08:46:45.251Z,17.33
2022-09-29T08:47:47.627Z,17.30
2022-09-29T08:48:55.545Z,17.30
2022-09-29T08:49:45.183Z,17.33
2022-09-29T08:50:45.173Z,17.28
2022-09-29T08:51:45.172Z,17.36
2022-09-29T08:52:52.025Z,17.36
2022-09-29T08:53:57.644Z,17.23
2022-09-29T08:54:48.722Z,17.34
2022-09-29T08:55:45.162Z,17.33
2022-09-29T08:56:45.161Z,17.34
2022-09-29T08:57:45.151Z,17.30
2022-09-29T08:58:45.179Z,17.28
2022-09-29T08:59:45.142Z,17.33
2022-09-29T09:00:45.204Z,17.34
2022-09-29T09:01:45.168Z,17.37
2022-09-29T09:02:45.241Z,17.28
2022-09-29T09:03:45.140Z,17.33
2022-09-29T09:04:45.133Z,17.36
2022-09-29T09:05:45.126Z,17.37
2022-09-29T09:06:45.135Z,17.30
2022-09-29T09:07:45.128Z,17.30
2022-09-29T09:08:45.183Z,17.33
2022-09-29T09:09:45.127Z,17.26
2022-09-29T09:10:45.111Z,17.30
2022-09-29T09:11:45.117Z,17.33
2022-09-29T09:12:45.106Z,17.34
2022-09-29T09:13:45.110Z,17.31
2022-09-29T09:14:45.138Z,17.25
2022-09-29T09:15:45.105Z,17.31
2022-09-29T09:16:45.173Z,17.34
2022-09-29T09:17:45.106Z,17.33
2022-09-29T09:18:45.141Z,17.31
2022-09-29T09:19:45.097Z,17.34
2022-09-29T09:20:45.081Z,17.31
2022-09-29T09:21:45.088Z,17.37
2022-09-29T09:22:45.083Z,17.30
2022-09-29T09:23:45.079Z,17.30
2022-09-29T09:24:45.077Z,17.31
2022-09-29T09:25:45.082Z,17.33
2022-09-29T09:26:45.067Z,17.33
2022-09-29T09:27:45.061Z,17.31
2022-09-29T09:28:45.059Z,17.33
2022-09-29T09:29:45.063Z,17.31
2022-09-29T09:30:45.139Z,17.31
2022-09-29T09:31:45.053Z,17.28
2022-09-29T09:32:45.046Z,17.33
2022-09-29T09:33:48.441Z,17.31
2022-09-29T09:34:45.713Z,17.33
2022-09-29T09:35:55.289Z,17.28
2022-09-29T09:36:45.124Z,17.33
2022-09-29T09:37:45.048Z,17.34
2022-09-29T09:38:45.029Z,17.34
2022-09-29T09:39:45.021Z,17.31
2022-09-29T09:40:45.028Z,17.37
2022-09-29T09:41:45.029Z,17.31
2022-09-29T09:42:45.020Z,17.28
2022-09-29T09:43:45.023Z,17.30
2022-09-29T09:44:45.011Z,17.33
2022-09-29T09:45:45.050Z,17.36
2022-09-29T09:46:45.026Z,17.34
2022-09-29T09:47:45.007Z,17.30
2022-09-29T09:48:44.995Z,17.30
2022-09-29T09:49:44.994Z,17.34
2022-09-29T09:50:44.988Z,17.33
2022-09-29T09:52:45.077Z,17.34
2022-09-29T09:53:44.986Z,17.31
2022-09-29T09:54:44.982Z,17.34
2022-09-29T09:55:44.976Z,17.26
2022-09-29T09:56:44.977Z,17.31
2022-09-29T09:57:44.970Z,17.36
2022-09-29T09:58:44.976Z,17.33
2022-09-29T09:59:44.970Z,17.33
2022-09-29T10:00:45.011Z,17.34
2022-09-29T10:01:45.018Z,17.36
2022-09-29T10:02:45.164Z,17.25
2022-09-29T10:03:44.955Z,17.34
2022-09-29T10:04:44.946Z,17.30
2022-09-29T10:05:45.021Z,17.30
2022-09-29T10:06:44.980Z,17.30
2022-09-29T10:07:45.001Z,17.31
2022-09-29T10:08:44.953Z,17.33
2022-09-29T10:09:45.003Z,17.33
2022-09-29T10:10:57.498Z,17.34
2022-09-29T10:11:44.925Z,17.34
2022-09-29T10:12:44.927Z,17.30
2022-09-29T10:13:44.926Z,17.31
2022-09-29T10:14:44.917Z,17.30
2022-09-29T10:15:44.928Z,17.30
2022-09-29T10:16:44.943Z,17.30
2022-09-29T10:17:44.906Z,17.33
2022-09-29T10:18:44.970Z,17.34
2022-09-29T10:19:44.898Z,17.30
2022-09-29T10:20:44.899Z,17.36
2022-09-29T10:21:44.894Z,17.31
2022-09-29T10:22:48.409Z,17.30
2022-09-29T10:23:44.897Z,17.36
2022-09-29T10:24:44.886Z,17.30
2022-09-29T10:25:44.893Z,17.28
2022-09-29T10:26:44.882Z,17.33
2022-09-29T10:27:44.873Z,17.37
2022-09-29T10:28:44.886Z,17.33
2022-09-29T10:29:44.872Z,17.28
2022-09-29T10:30:44.932Z,17.36
2022-09-29T10:31:44.867Z,17.34
2022-09-29T10:32:44.871Z,17.28
2022-09-29T10:33:44.865Z,17.33
2022-09-29T10:34:44.924Z,17.34
2022-09-29T10:35:45.019Z,17.31
2022-09-29T10:36:44.857Z,17.33
2022-09-29T10:37:44.850Z,17.31
2022-09-29T10:38:44.849Z,17.26
2022-09-29T10:39:44.845Z,17.31
2022-09-29T10:40:44.843Z,17.33
2022-09-29T10:41:44.832Z,17.34
2022-09-29T10:42:44.850Z,17.34
2022-09-29T10:43:44.826Z,17.31
2022-09-29T10:44:44.830Z,17.37
2022-09-29T10:45:44.880Z,17.36
2022-09-29T10:46:44.827Z,17.31
2022-09-29T10:47:44.812Z,17.36
2022-09-29T10:48:44.811Z,17.34
2022-09-29T10:49:44.815Z,17.34
2022-09-29T10:50:44.831Z,17.33
2022-09-29T10:51:44.806Z,17.31
2022-09-29T10:52:44.807Z,17.28
2022-09-29T10:53:44.812Z,17.33
2022-09-29T10:54:44.798Z,17.33
2022-09-29T10:55:44.830Z,17.33
2022-09-29T10:56:44.784Z,17.30
2022-09-29T10:57:44.786Z,17.34
2022-09-29T10:58:57.778Z,17.33
2022-09-29T10:59:44.783Z,17.36
2022-09-29T11:00:44.772Z,17.28
2022-09-29T11:01:44.774Z,17.31
2022-09-29T11:02:44.800Z,17.31
2022-09-29T11:03:44.762Z,17.30
2022-09-29T11:04:44.760Z,17.36
2022-09-29T11:05:44.756Z,17.31
2022-09-29T11:06:44.911Z,17.40
2022-09-29T11:07:44.752Z,17.37
2022-09-29T11:08:44.755Z,17.31
2022-09-29T11:09:44.806Z,17.37
2022-09-29T11:10:44.743Z,17.30
2022-09-29T11:11:44.738Z,17.33
2022-09-29T11:12:44.733Z,17.33
2022-09-29T11:13:44.738Z,17.28
2022-09-29T11:14:44.738Z,17.36
2022-09-29T11:15:44.727Z,17.44
2022-09-29T11:16:44.869Z,17.33
2022-09-29T11:17:44.717Z,17.43
2022-09-29T11:18:44.722Z,17.41
2022-09-29T11:19:44.719Z,17.31
2022-09-29T11:20:44.724Z,17.34
2022-09-29T11:21:44.713Z,17.30
2022-09-29T11:22:44.720Z,17.31
2022-09-29T11:23:44.699Z,17.34
2022-09-29T11:24:44.702Z,17.34
2022-09-29T11:25:44.705Z,17.31
2022-09-29T11:26:44.697Z,17.46
2022-09-29T11:27:44.697Z,17.41
2022-09-29T11:28:44.682Z,17.38
2022-09-29T11:29:44.688Z,17.40
2022-09-29T11:30:44.726Z,17.34
2022-09-29T11:31:44.680Z,17.28
2022-09-29T11:32:44.683Z,17.40
2022-09-29T11:33:44.715Z,17.43
2022-09-29T11:34:44.676Z,17.44
2022-09-29T11:35:44.664Z,17.28
2022-09-29T11:36:44.655Z,17.44
2022-09-29T11:37:44.672Z,17.36
2022-09-29T11:38:44.675Z,17.46
2022-09-29T11:39:44.647Z,17.46
2022-09-29T11:40:44.647Z,17.46
2022-09-29T11:41:44.648Z,17.46
2022-09-29T11:42:44.644Z,17.48
2022-09-29T11:43:44.644Z,17.49
2022-09-29T11:44:44.689Z,17.44
2022-09-29T11:45:44.796Z,17.48
2022-09-29T11:46:44.743Z,17.48
2022-09-29T11:47:44.635Z,17.41
2022-09-29T11:48:44.630Z,17.46
2022-09-29T11:49:44.624Z,17.44
2022-09-29T11:50:44.615Z,17.46
2022-09-29T11:51:44.616Z,17.48
2022-09-29T11:52:44.763Z,17.44
2022-09-29T11:53:44.612Z,17.44
2022-09-29T11:54:44.626Z,17.51
2022-09-29T11:55:44.610Z,17.49
2022-09-29T11:56:44.619Z,17.46
2022-09-29T11:57:44.602Z,17.49
2022-09-29T11:58:44.609Z,17.52
2022-09-29T11:59:44.593Z,17.51
2022-09-29T12:00:44.590Z,17.51
2022-09-29T12:01:44.582Z,17.48
2022-09-29T12:02:44.661Z,17.46
2022-09-29T12:03:44.597Z,17.46
2022-09-29T12:04:44.571Z,17.51
2022-09-29T12:05:44.579Z,17.52
2022-09-29T12:06:44.570Z,17.51
2022-09-29T12:07:44.574Z,17.52
2022-09-29T12:08:44.582Z,17.52
2022-09-29T12:09:44.571Z,17.51
2022-09-29T12:10:44.588Z,17.46
2022-09-29T12:11:59.929Z,17.48
2022-09-29T12:12:44.627Z,17.43
2022-09-29T12:13:44.555Z,17.43
2022-09-29T12:14:44.544Z,17.44
2022-09-29T12:15:44.540Z,17.49
2022-09-29T12:16:44.641Z,17.56
2022-09-29T12:17:44.547Z,17.44
2022-09-29T12:18:44.553Z,17.46
2022-09-29T12:19:44.545Z,17.46
2022-09-29T12:20:44.524Z,17.48
2022-09-29T12:21:44.524Z,17.46
2022-09-29T12:22:45.020Z,17.52
2022-09-29T12:23:44.532Z,17.52
2022-09-29T12:24:44.549Z,17.52
2022-09-29T12:25:44.525Z,17.51
2022-09-29T12:26:44.565Z,17.51
2022-09-29T12:27:44.512Z,17.54
2022-09-29T12:28:44.507Z,17.52
2022-09-29T12:29:44.515Z,17.55
2022-09-29T12:30:44.586Z,17.55
2022-09-29T12:31:44.499Z,17.58
2022-09-29T12:32:44.514Z,17.49
2022-09-29T12:33:44.861Z,17.52
2022-09-29T12:34:44.522Z,17.46
2022-09-29T12:35:44.522Z,17.59
2022-09-29T12:36:44.480Z,17.51
2022-09-29T12:37:44.478Z,17.56
2022-09-29T12:38:44.486Z,17.52
2022-09-29T12:39:44.522Z,17.54
2022-09-29T12:40:44.462Z,17.59
2022-09-29T12:41:44.493Z,17.55
2022-09-29T12:42:44.523Z,17.59
2022-09-29T12:43:44.468Z,17.59
2022-09-29T12:44:44.457Z,17.56
2022-09-29T12:45:44.493Z,17.52
2022-09-29T12:46:44.461Z,17.56
2022-09-29T12:47:44.472Z,17.54
2022-09-29T12:48:44.473Z,17.59
2022-09-29T12:49:44.443Z,17.52
2022-09-29T12:50:44.486Z,17.56
2022-09-29T12:51:44.446Z,17.54
2022-09-29T12:52:44.452Z,17.56
2022-09-29T12:53:44.472Z,17.49